Time;durP1;ratioP1;P1;durP2;ratioP2;P2;SDS_P1;SDS_P2;PMS_P1;PMS_P2;Temp;Humidity;BMP_temperature;BMP_pressure;BME280_temperature;BME280_humidity;BME280_pressure;Samples;Min_cycle;Max_cycle;Signal;HPM_P1;HPM_P2
2022/12/04 00:01:21;;;;;;;31.67;16.02;;;;;7.70;101686.00;;;;5011328;28;20193;-74
2022/12/04 00:03:51;;;;;;;32.20;15.68;;;;;7.70;101683.00;;;;5015925;28;20216;-74
2022/12/04 00:06:20;;;;;;;28.77;15.10;;;;;7.70;101670.00;;;;5004518;28;20197;-75
2022/12/04 00:08:49;;;;;;;35.08;17.38;;;;;7.70;101670.00;;;;5007964;28;20205;-74
2022/12/04 00:11:20;;;;;;;29.40;15.55;;;;;7.80;101675.00;;;;5021786;28;20203;-75
2022/12/04 00:13:47;;;;;;;37.10;16.50;;;;;7.80;101670.00;;;;5010850;28;20211;-74
2022/12/04 00:16:16;;;;;;;29.55;15.50;;;;;7.80;101665.00;;;;5016588;28;20207;-74
2022/12/04 00:18:44;;;;;;;33.03;16.70;;;;;7.80;101663.00;;;;5016487;28;20201;-74
2022/12/04 00:21:13;;;;;;;32.20;15.88;;;;;7.80;101658.00;;;;5005265;28;20200;-74
2022/12/04 00:23:41;;;;;;;31.30;15.48;;;;;7.80;101651.00;;;;5002426;28;20570;-74
2022/12/04 00:26:13;;;;;;;28.50;15.77;;;;;7.80;101653.00;;;;5006999;28;20223;-75
2022/12/04 00:28:42;;;;;;;31.70;17.55;;;;;7.80;101651.00;;;;5004373;28;20205;-74
2022/12/04 00:31:11;;;;;;;32.75;15.93;;;;;7.80;101647.00;;;;5006048;28;20578;-75
2022/12/04 00:33:39;;;;;;;35.10;19.30;;;;;7.80;101658.00;;;;5018689;28;20197;-74
2022/12/04 00:36:10;;;;;;;31.50;15.82;;;;;7.80;101658.00;;;;5007221;28;20221;-74
2022/12/04 00:38:38;;;;;;;29.15;15.45;;;;;7.80;101652.00;;;;5002145;28;20196;-74
2022/12/04 00:41:09;;;;;;;29.73;15.50;;;;;7.80;101655.00;;;;5003175;28;20741;-74
2022/12/04 00:43:37;;;;;;;30.15;16.38;;;;;7.80;101654.00;;;;5003950;28;20201;-75
2022/12/04 00:46:04;;;;;;;32.53;16.42;;;;;7.80;101653.00;;;;5005498;28;20219;-75
2022/12/04 00:48:31;;;;;;;33.95;16.38;;;;;7.80;101654.00;;;;5007482;28;20200;-74
2022/12/04 00:51:02;;;;;;;32.08;15.85;;;;;7.70;101650.00;;;;5004171;28;20209;-74
2022/12/04 00:53:29;;;;;;;30.85;16.23;;;;;7.80;101644.00;;;;5003180;28;20692;-74
2022/12/04 00:55:57;;;;;;;31.63;16.42;;;;;7.70;101654.00;;;;5003874;28;20197;-74
2022/12/04 00:58:25;;;;;;;36.60;17.80;;;;;7.70;101651.00;;;;5001743;28;20208;-74
2022/12/04 01:01:02;;;;;;;35.78;17.08;;;;;7.70;101651.00;;;;5005127;28;20539;-75
2022/12/04 01:03:29;;;;;;;31.88;16.45;;;;;7.70;101648.00;;;;5002545;28;20302;-74
2022/12/04 01:05:56;;;;;;;32.97;16.38;;;;;7.70;101646.00;;;;5002748;28;20224;-75
2022/12/04 01:08:24;;;;;;;36.70;16.75;;;;;7.80;101648.00;;;;5005657;28;20201;-74
2022/12/04 01:10:51;;;;;;;36.00;18.23;;;;;7.80;101645.00;;;;5002664;28;20208;-75
2022/12/04 01:13:18;;;;;;;29.73;15.57;;;;;7.80;101644.00;;;;5003667;28;20666;-74
2022/12/04 01:15:48;;;;;;;32.53;16.17;;;;;7.80;101649.00;;;;5003194;28;20220;-74
2022/12/04 01:18:16;;;;;;;33.67;16.58;;;;;7.70;101646.00;;;;5002633;28;20209;-74
2022/12/04 01:20:48;;;;;;;34.55;17.63;;;;;7.70;101650.00;;;;5004991;28;20224;-74
2022/12/04 01:23:16;;;;;;;34.50;16.65;;;;;7.80;101643.00;;;;5002387;28;20291;-74
2022/12/04 01:25:51;;;;;;;34.25;17.45;;;;;7.70;101638.00;;;;5013240;28;20587;-75
2022/12/04 01:28:18;;;;;;;35.42;17.70;;;;;7.80;101633.00;;;;5002639;28;20251;-75
2022/12/04 01:30:57;;;;;;;34.65;17.17;;;;;7.70;101644.00;;;;5002928;28;20197;-74
2022/12/04 01:33:24;;;;;;;31.85;16.17;;;;;7.80;101640.00;;;;5003274;28;20240;-74
2022/12/04 01:35:53;;;;;;;29.25;15.55;;;;;7.80;101641.00;;;;5001284;28;20832;-74
2022/12/04 01:38:20;;;;;;;34.47;17.92;;;;;7.80;101644.00;;;;5002246;28;20197;-75
2022/12/04 01:40:48;;;;;;;32.78;16.75;;;;;7.80;101654.00;;;;5007302;28;20196;-74
2022/12/04 01:43:16;;;;;;;33.55;17.50;;;;;7.80;101642.00;;;;5008874;28;20197;-74
2022/12/04 01:45:46;;;;;;;33.67;17.73;;;;;7.80;101640.00;;;;5004603;28;20228;-74
2022/12/04 01:48:21;;;;;;;33.08;17.50;;;;;7.80;101640.00;;;;5004303;28;20201;-75
2022/12/04 01:50:51;;;;;;;35.78;18.20;;;;;7.80;101646.00;;;;5005271;28;20577;-74
2022/12/04 01:53:19;;;;;;;34.38;16.42;;;;;7.80;101647.00;;;;5005705;28;20205;-74
2022/12/04 01:55:48;;;;;;;35.17;17.13;;;;;7.80;101647.00;;;;5006915;28;20204;-74
2022/12/04 01:58:17;;;;;;;32.47;17.50;;;;;7.80;101654.00;;;;5006041;28;20209;-75
2022/12/04 02:00:47;;;;;;;32.50;17.30;;;;;7.80;101650.00;;;;5005582;28;20212;-74
2022/12/04 02:03:15;;;;;;;30.70;17.05;;;;;7.90;101651.00;;;;5005442;28;20217;-75
2022/12/04 02:05:42;;;;;;;40.03;18.38;;;;;7.90;101646.00;;;;5006477;28;20220;-74
2022/12/04 02:08:10;;;;;;;34.70;17.80;;;;;7.90;101646.00;;;;5009704;28;20659;-75
2022/12/04 02:10:46;;;;;;;34.03;17.55;;;;;7.80;101655.00;;;;5005791;28;20197;-75
2022/12/04 02:13:21;;;;;;;31.15;17.15;;;;;7.80;101647.00;;;;5007645;28;20193;-74
2022/12/04 02:15:59;;;;;;;31.85;16.83;;;;;7.80;101643.00;;;;5003266;28;20678;-74
2022/12/04 02:18:35;;;;;;;31.83;17.88;;;;;7.80;101647.00;;;;5005376;28;20395;-74
2022/12/04 02:21:09;;;;;;;36.00;18.02;;;;;7.80;101649.00;;;;5004853;28;20542;-74
2022/12/04 02:23:58;;;;;;;34.25;16.60;;;;;7.80;101643.00;;;;5005605;28;20217;-74
2022/12/04 02:26:47;;;;;;;29.33;15.35;;;;;7.80;101655.00;;;;5004366;28;20259;-74
2022/12/04 02:29:23;;;;;;;28.95;15.68;;;;;7.80;101647.00;;;;5008532;28;20208;-74
2022/12/04 02:31:56;;;;;;;33.38;17.60;;;;;7.80;101645.00;;;;5008734;28;20592;-74
2022/12/04 02:34:29;;;;;;;33.22;17.98;;;;;7.80;101648.00;;;;5008680;28;20216;-75
2022/12/04 02:37:00;;;;;;;32.78;17.48;;;;;7.80;101645.00;;;;5004921;28;20196;-74
2022/12/04 02:39:35;;;;;;;31.83;17.17;;;;;7.80;101642.00;;;;5009725;28;20674;-74
2022/12/04 02:42:09;;;;;;;34.60;17.58;;;;;7.80;101636.00;;;;5005327;28;20662;-75
2022/12/04 02:44:42;;;;;;;32.70;16.58;;;;;7.80;101641.00;;;;5006533;28;20205;-75
2022/12/04 02:47:13;;;;;;;34.40;16.95;;;;;7.90;101642.00;;;;5004119;28;20197;-74
2022/12/04 02:49:45;;;;;;;35.63;17.08;;;;;7.90;101629.00;;;;5004701;28;20201;-75
2022/12/04 02:52:17;;;;;;;31.98;15.52;;;;;7.90;101629.00;;;;5011677;28;20201;-74
2022/12/04 02:54:50;;;;;;;33.05;17.15;;;;;7.90;101622.00;;;;5008511;28;20577;-74
2022/12/04 02:57:24;;;;;;;29.67;15.98;;;;;7.80;101620.00;;;;5010949;28;20201;-74
2022/12/04 02:59:55;;;;;;;39.35;17.20;;;;;7.90;101621.00;;;;5012727;28;20216;-75
2022/12/04 03:02:27;;;;;;;34.00;15.98;;;;;7.90;101618.00;;;;5017394;28;20239;-75
2022/12/04 03:04:57;;;;;;;32.75;16.77;;;;;7.90;101624.00;;;;5008894;28;20197;-75
2022/12/04 03:07:32;;;;;;;35.00;18.58;;;;;7.90;101612.00;;;;5008857;28;20232;-74
2022/12/04 03:10:02;;;;;;;33.20;17.85;;;;;7.90;101616.00;;;;5009766;28;20245;-74
2022/12/04 03:12:36;;;;;;;33.25;17.30;;;;;7.90;101617.00;;;;5009108;28;20211;-75
2022/12/04 03:15:10;;;;;;;33.90;17.83;;;;;7.80;101606.00;;;;5024523;28;20299;-75
2022/12/04 03:17:44;;;;;;;33.25;16.38;;;;;7.90;101606.00;;;;5007620;28;20660;-75
2022/12/04 03:20:14;;;;;;;32.30;17.38;;;;;7.80;101612.00;;;;5008514;28;20551;-74
2022/12/04 03:22:45;;;;;;;32.35;16.92;;;;;7.90;101601.00;;;;5017333;28;20207;-75
2022/12/04 03:25:13;;;;;;;35.65;18.55;;;;;7.80;101603.00;;;;5025961;28;20224;-75
2022/12/04 03:27:46;;;;;;;35.50;18.77;;;;;7.80;101602.00;;;;5016785;28;20205;-75
2022/12/04 03:30:17;;;;;;;36.60;17.75;;;;;7.80;101605.00;;;;5008386;28;20771;-75
2022/12/04 03:32:50;;;;;;;34.70;18.00;;;;;7.80;101593.00;;;;5023349;28;20211;-75
2022/12/04 03:35:23;;;;;;;35.17;18.70;;;;;7.80;101596.00;;;;5012589;28;20236;-75
2022/12/04 03:37:56;;;;;;;33.17;17.67;;;;;7.70;101600.00;;;;5011836;28;20197;-75
2022/12/04 03:40:26;;;;;;;34.63;18.52;;;;;7.80;101604.00;;;;5014394;28;20208;-74
2022/12/04 03:43:00;;;;;;;31.65;16.55;;;;;7.70;101605.00;;;;5026729;28;20570;-74
2022/12/04 03:45:35;;;;;;;36.78;18.08;;;;;7.70;101603.00;;;;5010846;28;20231;-75
2022/12/04 03:48:07;;;;;;;33.38;17.23;;;;;7.70;101600.00;;;;5008982;28;20199;-75
2022/12/04 03:50:37;;;;;;;29.90;16.90;;;;;7.70;101603.00;;;;5007997;28;20216;-75
2022/12/04 03:53:11;;;;;;;33.58;18.63;;;;;7.70;101607.00;;;;5008346;28;20205;-74
2022/12/04 03:55:45;;;;;;;34.50;18.27;;;;;7.70;101607.00;;;;5013361;28;20193;-74
2022/12/04 03:58:16;;;;;;;37.63;18.23;;;;;7.70;101608.00;;;;5007398;28;20197;-74
2022/12/04 04:00:47;;;;;;;34.55;17.27;;;;;7.70;101613.00;;;;5005896;28;20219;-75
2022/12/04 04:03:18;;;;;;;33.83;18.35;;;;;7.70;101612.00;;;;5010094;28;20232;-74
2022/12/04 04:05:49;;;;;;;32.85;17.20;;;;;7.70;101607.00;;;;5010128;28;20225;-75
2022/12/04 04:08:26;;;;;;;31.13;16.55;;;;;7.80;101617.00;;;;5004736;28;20577;-75
2022/12/04 04:10:56;;;;;;;28.50;16.02;;;;;7.80;101613.00;;;;5005951;28;20254;-75
2022/12/04 04:24:45;;;;;;;30.48;15.55;;;;;7.70;101595.00;;;;5004120;28;20363;-74
2022/12/04 04:27:13;;;;;;;34.22;17.55;;;;;7.80;101597.00;;;;5005603;28;20225;-75
2022/12/04 04:29:41;;;;;;;34.22;17.00;;;;;7.80;101595.00;;;;5002417;28;20207;-75
2022/12/04 04:32:14;;;;;;;34.80;17.35;;;;;7.70;101595.00;;;;5001974;28;20205;-75
2022/12/04 04:34:54;;;;;;;35.03;18.08;;;;;7.70;101593.00;;;;5003330;28;20223;-75
2022/12/04 04:37:29;;;;;;;30.45;16.63;;;;;7.80;101595.00;;;;5001494;28;20208;-75
2022/12/04 04:40:04;;;;;;;34.88;18.40;;;;;7.80;101601.00;;;;5008078;28;20200;-74
2022/12/04 04:42:38;;;;;;;29.60;16.58;;;;;7.80;101597.00;;;;5007355;28;20244;-74
2022/12/04 04:45:10;;;;;;;34.30;17.73;;;;;7.80;101601.00;;;;5008835;28;20227;-74
2022/12/04 04:47:43;;;;;;;34.80;18.05;;;;;7.80;101595.00;;;;5011328;28;20900;-74
2022/12/04 04:50:13;;;;;;;34.80;17.55;;;;;7.80;101590.00;;;;5013458;28;20193;-75
2022/12/04 04:52:46;;;;;;;31.90;15.95;;;;;7.80;101588.00;;;;5006803;28;20643;-74
2022/12/04 04:55:14;;;;;;;36.85;19.00;;;;;7.80;101595.00;;;;5002803;28;20197;-74
2022/12/04 04:57:41;;;;;;;33.30;16.67;;;;;7.80;101596.00;;;;5004201;28;20199;-75
2022/12/04 05:00:13;;;;;;;34.30;17.13;;;;;7.80;101587.00;;;;5001341;28;20193;-75
2022/12/04 05:02:43;;;;;;;35.88;18.92;;;;;7.90;101599.00;;;;5003474;28;20616;-75
2022/12/04 05:05:11;;;;;;;31.60;17.20;;;;;7.90;101602.00;;;;5003334;28;20601;-75
2022/12/04 05:07:38;;;;;;;34.97;18.13;;;;;7.90;101596.00;;;;5002854;28;20201;-75
2022/12/04 05:10:07;;;;;;;31.77;16.77;;;;;7.90;101596.00;;;;5001668;28;20208;-75
2022/12/04 05:12:35;;;;;;;32.90;16.92;;;;;7.90;101608.00;;;;5004142;28;20193;-74
2022/12/04 05:15:02;;;;;;;31.45;17.13;;;;;7.90;101605.00;;;;5010242;28;20200;-74
2022/12/04 05:17:30;;;;;;;33.92;17.52;;;;;7.90;101599.00;;;;5016923;28;20212;-74
2022/12/04 05:19:58;;;;;;;31.15;17.08;;;;;7.90;101603.00;;;;5012281;28;20566;-74
2022/12/04 05:22:28;;;;;;;34.78;17.55;;;;;7.90;101608.00;;;;5009743;28;20346;-75
2022/12/04 05:24:56;;;;;;;33.60;17.00;;;;;7.90;101607.00;;;;5016388;28;20211;-75
2022/12/04 05:27:24;;;;;;;34.17;17.15;;;;;7.90;101613.00;;;;5005315;28;20267;-75
2022/12/04 05:29:53;;;;;;;37.85;17.95;;;;;7.90;101615.00;;;;5005875;28;20208;-75
2022/12/04 05:32:21;;;;;;;28.65;16.17;;;;;7.90;101613.00;;;;5012916;28;20274;-74
2022/12/04 05:34:48;;;;;;;30.73;16.42;;;;;7.90;101616.00;;;;5007939;28;20235;-75
2022/12/04 05:37:17;;;;;;;31.30;16.88;;;;;7.90;101620.00;;;;5007516;28;20208;-74
2022/12/04 05:39:44;;;;;;;28.63;15.65;;;;;7.90;101620.00;;;;5006881;28;20208;-74
2022/12/04 05:42:13;;;;;;;32.40;16.95;;;;;7.90;101623.00;;;;5008973;28;20208;-75
2022/12/04 05:44:41;;;;;;;30.75;16.40;;;;;7.90;101623.00;;;;5004889;28;20196;-74
2022/12/04 05:47:09;;;;;;;34.00;17.77;;;;;7.90;101620.00;;;;5005607;28;20228;-74
2022/12/04 05:49:36;;;;;;;36.08;18.92;;;;;7.90;101622.00;;;;5007573;28;20200;-74
2022/12/04 05:52:05;;;;;;;31.90;17.40;;;;;7.90;101616.00;;;;5026013;28;20204;-74
2022/12/04 05:54:35;;;;;;;33.28;17.67;;;;;7.90;101616.00;;;;5019165;28;20201;-75
2022/12/04 05:57:02;;;;;;;33.85;18.05;;;;;7.90;101612.00;;;;5006019;28;20228;-74
2022/12/04 05:59:29;;;;;;;35.38;18.08;;;;;7.90;101608.00;;;;5006814;28;20204;-74
2022/12/04 06:01:56;;;;;;;34.30;18.30;;;;;7.90;101604.00;;;;5005815;28;20204;-75
2022/12/04 06:04:24;;;;;;;33.97;17.85;;;;;7.90;101607.00;;;;5006859;28;20244;-74
2022/12/04 06:06:52;;;;;;;32.25;16.75;;;;;7.90;101612.00;;;;5005567;28;20221;-74
2022/12/04 06:09:20;;;;;;;31.85;16.73;;;;;7.90;101609.00;;;;5006326;28;20298;-74
2022/12/04 06:11:49;;;;;;;32.70;17.10;;;;;7.90;101612.00;;;;5006406;28;20197;-75
2022/12/04 06:14:16;;;;;;;35.90;17.83;;;;;7.90;101612.00;;;;5004629;28;20990;-75
2022/12/04 06:16:46;;;;;;;33.17;18.10;;;;;7.90;101613.00;;;;5006503;28;20208;-74
2022/12/04 06:19:15;;;;;;;34.80;17.60;;;;;7.90;101607.00;;;;5005209;28;20215;-75
2022/12/04 06:21:44;;;;;;;32.65;17.15;;;;;7.90;101603.00;;;;5005624;28;20197;-75
2022/12/04 06:24:15;;;;;;;35.30;18.42;;;;;7.80;101597.00;;;;5007125;28;20209;-74
2022/12/04 06:26:43;;;;;;;36.47;18.55;;;;;7.90;101613.00;;;;5007691;28;20508;-75
2022/12/04 06:29:12;;;;;;;32.70;17.58;;;;;7.80;101600.00;;;;5007427;28;20197;-75
2022/12/04 06:31:40;;;;;;;31.92;17.92;;;;;7.90;101603.00;;;;5014861;28;20204;-74
2022/12/04 06:34:08;;;;;;;31.88;17.33;;;;;7.90;101607.00;;;;5017330;28;20204;-74
2022/12/04 06:36:36;;;;;;;31.25;17.48;;;;;7.90;101607.00;;;;5009422;28;20374;-74
2022/12/04 06:39:04;;;;;;;32.58;17.52;;;;;7.90;101608.00;;;;5010295;28;20209;-75
2022/12/04 06:41:32;;;;;;;32.55;18.00;;;;;7.80;101620.00;;;;5006546;28;20205;-74
2022/12/04 06:43:59;;;;;;;35.05;17.10;;;;;7.80;101608.00;;;;5011289;28;20200;-74
2022/12/04 06:46:29;;;;;;;36.03;17.38;;;;;7.80;101606.00;;;;5014265;28;20220;-75
2022/12/04 06:48:58;;;;;;;35.33;17.98;;;;;7.80;101612.00;;;;5012402;28;20193;-75
2022/12/04 06:51:27;;;;;;;30.17;16.40;;;;;7.80;101614.00;;;;5020048;28;20204;-75
2022/12/04 06:53:55;;;;;;;31.92;16.63;;;;;7.80;101606.00;;;;5009027;28;20200;-74
2022/12/04 06:56:25;;;;;;;31.08;16.77;;;;;7.80;101614.00;;;;5009450;28;20205;-74
2022/12/04 06:58:53;;;;;;;36.47;17.40;;;;;7.80;101612.00;;;;5009177;28;20208;-74
2022/12/04 07:01:23;;;;;;;33.00;16.95;;;;;7.90;101617.00;;;;5021067;28;20208;-74
2022/12/04 07:03:52;;;;;;;34.38;18.20;;;;;7.80;101614.00;;;;5012585;28;20217;-74
2022/12/04 07:06:22;;;;;;;30.50;16.77;;;;;7.80;101623.00;;;;5007818;28;20691;-74
2022/12/04 07:08:52;;;;;;;31.35;16.75;;;;;7.80;101625.00;;;;5008249;28;20683;-74
2022/12/04 07:11:21;;;;;;;32.90;17.20;;;;;7.90;101618.00;;;;5010392;28;20197;-75
2022/12/04 07:13:48;;;;;;;29.30;15.85;;;;;7.80;101619.00;;;;5011808;28;20201;-74
2022/12/04 07:16:18;;;;;;;28.55;15.98;;;;;7.80;101620.00;;;;5012301;28;20669;-75
2022/12/04 07:18:45;;;;;;;31.70;16.85;;;;;7.90;101620.00;;;;5009054;28;20683;-74
2022/12/04 07:21:16;;;;;;;30.85;16.60;;;;;7.80;101621.00;;;;5017190;28;20242;-74
2022/12/04 07:23:45;;;;;;;34.90;16.27;;;;;7.90;101624.00;;;;5027358;28;20211;-74
2022/12/04 07:26:13;;;;;;;26.92;16.27;;;;;7.90;101628.00;;;;5028278;28;20196;-74
2022/12/04 07:28:43;;;;;;;30.00;15.70;;;;;7.90;101621.00;;;;5024846;28;20197;-74
2022/12/04 07:31:13;;;;;;;30.75;17.00;;;;;7.90;101629.00;;;;5014427;28;20224;-74
2022/12/04 07:33:41;;;;;;;31.63;16.88;;;;;7.90;101629.00;;;;5010902;28;20204;-74
2022/12/04 07:36:11;;;;;;;32.85;15.93;;;;;7.90;101635.00;;;;5013518;28;20355;-74
2022/12/04 07:38:40;;;;;;;31.17;16.17;;;;;7.90;101630.00;;;;5025790;28;20203;-74
2022/12/04 07:41:10;;;;;;;30.15;15.40;;;;;7.90;101627.00;;;;5018206;28;20209;-74
2022/12/04 07:43:37;;;;;;;33.03;16.48;;;;;7.90;101638.00;;;;5022594;28;20200;-74
2022/12/04 07:46:07;;;;;;;27.80;15.43;;;;;7.90;101637.00;;;;5026506;28;20196;-74
2022/12/04 07:48:34;;;;;;;31.27;17.08;;;;;7.90;101633.00;;;;5018993;28;20555;-74
2022/12/04 07:51:06;;;;;;;29.45;15.50;;;;;7.90;101636.00;;;;5013910;28;20695;-74
2022/12/04 07:53:35;;;;;;;28.70;15.23;;;;;7.90;101633.00;;;;5017549;28;20216;-74
2022/12/04 07:56:05;;;;;;;30.75;15.13;;;;;7.90;101639.00;;;;5021196;28;20208;-74
2022/12/04 07:58:32;;;;;;;28.13;15.20;;;;;8.00;101642.00;;;;5019780;28;20211;-75
2022/12/04 08:01:06;;;;;;;28.63;15.15;;;;;7.90;101637.00;;;;5021160;28;20194;-74
2022/12/04 08:03:34;;;;;;;27.65;15.88;;;;;8.00;101643.00;;;;5013923;28;20212;-75
2022/12/04 08:06:01;;;;;;;29.05;14.98;;;;;8.00;101648.00;;;;5009661;28;20197;-74
2022/12/04 08:08:29;;;;;;;29.77;15.85;;;;;8.00;101646.00;;;;5009210;28;20212;-75
2022/12/04 08:10:56;;;;;;;30.92;16.38;;;;;8.00;101645.00;;;;5019833;28;20790;-75
2022/12/04 08:13:25;;;;;;;29.45;16.52;;;;;8.00;101648.00;;;;5012543;28;20674;-75
2022/12/04 08:15:52;;;;;;;30.92;15.90;;;;;8.10;101652.00;;;;5008316;28;20201;-74
2022/12/04 08:18:20;;;;;;;29.45;16.40;;;;;8.10;101645.00;;;;5010507;28;20201;-75
2022/12/04 08:20:48;;;;;;;26.52;14.77;;;;;8.10;101651.00;;;;5013392;28;20220;-75
2022/12/04 08:23:15;;;;;;;31.48;17.48;;;;;8.10;101648.00;;;;5019946;28;20192;-75
2022/12/04 08:25:42;;;;;;;29.55;16.25;;;;;8.10;101655.00;;;;5006625;28;20457;-75
2022/12/04 08:28:10;;;;;;;32.38;16.02;;;;;8.10;101653.00;;;;5012460;28;20223;-75
2022/12/04 08:30:39;;;;;;;28.33;15.88;;;;;8.10;101654.00;;;;5014893;28;20208;-74
2022/12/04 08:33:06;;;;;;;28.77;14.90;;;;;8.20;101664.00;;;;5009458;28;20197;-74
2022/12/04 08:35:34;;;;;;;29.13;16.00;;;;;8.20;101661.00;;;;5007320;28;20226;-74
2022/12/04 08:38:02;;;;;;;31.33;15.90;;;;;8.20;101667.00;;;;5017316;28;20204;-74
2022/12/04 08:40:29;;;;;;;28.27;15.32;;;;;8.20;101666.00;;;;5018051;28;20213;-74
2022/12/04 08:42:56;;;;;;;33.45;16.85;;;;;8.20;101675.00;;;;5019143;28;20583;-75
2022/12/04 08:45:24;;;;;;;30.48;15.27;;;;;8.20;101669.00;;;;5006413;28;20985;-75
2022/12/04 08:47:52;;;;;;;29.10;14.32;;;;;8.20;101676.00;;;;5012374;28;20239;-73
2022/12/04 08:50:20;;;;;;;28.70;15.80;;;;;8.20;101671.00;;;;5013637;28;20675;-74
2022/12/04 08:52:47;;;;;;;26.63;15.18;;;;;8.30;101676.00;;;;5014582;28;20204;-75
2022/12/04 08:55:14;;;;;;;31.10;16.25;;;;;8.30;101671.00;;;;5018908;28;20722;-74
2022/12/04 08:57:42;;;;;;;30.20;15.23;;;;;8.30;101672.00;;;;5019605;28;20209;-74
2022/12/04 09:00:11;;;;;;;30.50;15.55;;;;;8.30;101669.00;;;;5020114;28;20580;-75
2022/12/04 09:02:39;;;;;;;26.23;14.38;;;;;8.30;101677.00;;;;5006920;28;20710;-73
2022/12/04 09:05:08;;;;;;;27.92;15.07;;;;;8.30;101680.00;;;;5021559;28;20197;-74
2022/12/04 09:07:35;;;;;;;32.92;16.63;;;;;8.30;101673.00;;;;5020182;28;20682;-73
2022/12/04 09:10:03;;;;;;;31.42;16.42;;;;;8.30;101661.00;;;;5014883;28;20201;-74
2022/12/04 09:12:30;;;;;;;27.10;14.85;;;;;8.40;101671.00;;;;5014117;28;20208;-74
2022/12/04 09:14:57;;;;;;;27.77;14.25;;;;;8.40;101663.00;;;;5021856;28;20208;-74
2022/12/04 09:17:26;;;;;;;28.98;15.55;;;;;8.40;101666.00;;;;5018193;28;20200;-74
2022/12/04 09:19:53;;;;;;;29.38;15.23;;;;;8.40;101669.00;;;;5019834;28;20212;-74
2022/12/04 09:22:21;;;;;;;30.40;15.52;;;;;8.30;101672.00;;;;5026495;28;20666;-74
2022/12/04 09:24:49;;;;;;;27.20;14.27;;;;;8.40;101666.00;;;;5031984;28;20200;-74
2022/12/04 09:27:16;;;;;;;26.08;15.73;;;;;8.40;101670.00;;;;5024452;28;20251;-74
2022/12/04 09:29:44;;;;;;;25.70;14.45;;;;;8.40;101662.00;;;;5023443;28;20678;-74
2022/12/04 09:32:11;;;;;;;30.70;16.10;;;;;8.40;101668.00;;;;5021315;28;20208;-74
2022/12/04 09:34:38;;;;;;;26.98;13.68;;;;;8.40;101668.00;;;;5011508;28;20295;-75
2022/12/04 09:37:05;;;;;;;27.13;14.80;;;;;8.40;101658.00;;;;5018253;28;20200;-75
2022/12/04 09:39:34;;;;;;;29.75;15.95;;;;;8.40;101664.00;;;;5018054;28;20193;-75
2022/12/04 09:42:21;;;;;;;29.05;14.18;;;;;8.30;101665.00;;;;5024057;28;20197;-75
2022/12/04 09:44:54;;;;;;;27.85;14.93;;;;;8.30;101668.00;;;;5016136;28;20208;-75
2022/12/04 09:47:26;;;;;;;29.00;14.73;;;;;8.40;101658.00;;;;5016827;28;20227;-75
2022/12/04 09:49:59;;;;;;;28.60;13.45;;;;;8.30;101663.00;;;;5016826;28;20205;-75
2022/12/04 09:52:37;;;;;;;22.77;12.02;;;;;8.30;101662.00;;;;5014365;28;20193;-75
2022/12/04 09:55:13;;;;;;;28.00;14.38;;;;;8.30;101667.00;;;;5023586;28;20211;-75
2022/12/04 09:57:43;;;;;;;26.00;13.90;;;;;8.40;101664.00;;;;5031106;28;20200;-75
2022/12/04 10:00:14;;;;;;;26.63;13.93;;;;;8.40;101666.00;;;;5019347;28;20205;-75
2022/12/04 10:02:44;;;;;;;27.27;13.88;;;;;8.40;101654.00;;;;5011388;28;20217;-75
2022/12/04 10:05:18;;;;;;;26.35;12.55;;;;;8.40;101666.00;;;;5012121;28;20200;-75
2022/12/04 10:07:54;;;;;;;24.63;12.65;;;;;8.40;101661.00;;;;5009939;28;20646;-75
2022/12/04 10:10:32;;;;;;;26.15;13.63;;;;;8.40;101657.00;;;;5014879;28;20688;-75
2022/12/04 10:13:07;;;;;;;23.65;13.63;;;;;8.40;101647.00;;;;5013528;28;20216;-75
2022/12/04 10:15:43;;;;;;;25.88;13.35;;;;;8.40;101660.00;;;;5021711;28;20193;-76
2022/12/04 10:18:27;;;;;;;24.70;11.93;;;;;8.40;101666.00;;;;5011349;28;20208;-76
2022/12/04 10:21:12;;;;;;;22.92;13.23;;;;;8.30;101655.00;;;;5016600;28;20211;-75
2022/12/04 10:23:53;;;;;;;25.92;13.13;;;;;8.40;101667.00;;;;5009212;28;20200;-74
2022/12/04 10:26:27;;;;;;;21.25;11.55;;;;;8.40;101662.00;;;;5011298;28;20209;-76
2022/12/04 10:28:59;;;;;;;22.83;12.02;;;;;8.40;101655.00;;;;5011360;28;20228;-74
2022/12/04 10:31:27;;;;;;;20.42;11.77;;;;;8.40;101662.00;;;;5014012;28;20216;-75
2022/12/04 10:33:58;;;;;;;24.48;11.95;;;;;8.40;101666.00;;;;5017974;28;20212;-74
2022/12/04 10:36:32;;;;;;;23.42;12.38;;;;;8.40;101659.00;;;;5023564;28;20240;-74
2022/12/04 10:39:02;;;;;;;23.88;11.57;;;;;8.40;101668.00;;;;5017485;28;20204;-74
2022/12/04 10:41:40;;;;;;;20.13;11.15;;;;;8.40;101661.00;;;;5009423;28;20208;-74
2022/12/04 10:44:13;;;;;;;21.98;12.00;;;;;8.40;101659.00;;;;5015812;28;20299;-75
2022/12/04 10:46:41;;;;;;;22.75;12.73;;;;;8.40;101658.00;;;;5013342;28;20749;-74
2022/12/04 10:49:16;;;;;;;19.77;10.52;;;;;8.40;101650.00;;;;5019693;28;20601;-74
2022/12/04 10:51:44;;;;;;;22.40;10.98;;;;;8.40;101648.00;;;;5020998;28;20305;-74
2022/12/04 10:54:20;;;;;;;20.88;11.88;;;;;8.40;101652.00;;;;5019510;28;20201;-74
2022/12/04 10:56:57;;;;;;;19.50;10.13;;;;;8.40;101644.00;;;;5025705;28;20209;-73
2022/12/04 10:59:25;;;;;;;18.27;10.43;;;;;8.40;101642.00;;;;5013898;28;20825;-74
2022/12/04 11:01:59;;;;;;;20.35;10.20;;;;;8.40;101642.00;;;;5012476;28;20205;-74
2022/12/04 11:04:29;;;;;;;19.65;10.38;;;;;8.40;101639.00;;;;5022984;28;20212;-74
2022/12/04 11:07:03;;;;;;;20.33;11.20;;;;;8.30;101641.00;;;;5023407;28;20211;-75
2022/12/04 11:09:32;;;;;;;19.83;9.75;;;;;8.40;101637.00;;;;5013869;28;20205;-74
2022/12/04 11:12:09;;;;;;;19.70;10.40;;;;;8.30;101645.00;;;;5013126;28;20204;-74
2022/12/04 11:14:36;;;;;;;17.55;9.57;;;;;8.40;101638.00;;;;5006689;28;20327;-75
2022/12/04 11:17:06;;;;;;;15.90;9.60;;;;;8.40;101637.00;;;;5019597;28;20203;-75
2022/12/04 11:19:35;;;;;;;19.63;10.25;;;;;8.40;101631.00;;;;5011466;28;20240;-75
2022/12/04 11:22:10;;;;;;;17.63;9.68;;;;;8.40;101645.00;;;;5008756;28;20201;-75
2022/12/04 11:24:39;;;;;;;17.98;9.88;;;;;8.40;101641.00;;;;5013963;28;20188;-75
2022/12/04 11:27:16;;;;;;;19.25;9.82;;;;;8.40;101640.00;;;;5012583;28;20706;-75
2022/12/04 11:29:46;;;;;;;16.30;9.68;;;;;8.40;101636.00;;;;5011181;28;20244;-75
2022/12/04 11:32:21;;;;;;;16.15;9.00;;;;;8.40;101637.00;;;;5008992;28;20201;-74
2022/12/04 11:34:50;;;;;;;21.35;10.73;;;;;8.40;101642.00;;;;5014904;28;20228;-75
2022/12/04 11:37:22;;;;;;;15.35;8.98;;;;;8.40;101620.00;;;;5014711;28;20292;-74
2022/12/04 11:39:50;;;;;;;15.32;8.52;;;;;8.50;101619.00;;;;5041703;28;20200;-74
2022/12/04 11:42:23;;;;;;;14.55;8.57;;;;;8.40;101612.00;;;;5018088;28;20559;-74
2022/12/04 11:44:53;;;;;;;14.30;8.10;;;;;8.40;101614.00;;;;5011957;28;20263;-74
2022/12/04 11:47:22;;;;;;;16.88;8.75;;;;;8.50;101606.00;;;;5025875;28;20211;-74
2022/12/04 11:50:02;;;;;;;14.98;8.07;;;;;8.40;101596.00;;;;5015225;28;20197;-75
2022/12/04 11:52:41;;;;;;;15.38;8.07;;;;;8.40;101593.00;;;;5022188;28;20275;-75
2022/12/04 11:55:17;;;;;;;14.93;8.02;;;;;8.40;101585.00;;;;5019058;28;20212;-75
2022/12/04 11:57:54;;;;;;;15.63;8.75;;;;;8.50;101583.00;;;;5009727;28;20209;-74
2022/12/04 12:00:23;;;;;;;15.43;9.25;;;;;8.50;101578.00;;;;5014864;28;20283;-75
2022/12/04 12:03:12;;;;;;;15.10;9.07;;;;;8.40;101573.00;;;;5018444;28;20234;-75
2022/12/04 12:06:00;;;;;;;12.30;7.75;;;;;8.40;101576.00;;;;5020129;28;20200;-75
2022/12/04 12:08:44;;;;;;;12.50;8.25;;;;;8.50;101568.00;;;;5011684;28;20216;-75
2022/12/04 12:11:18;;;;;;;13.18;8.68;;;;;8.50;101572.00;;;;5008620;28;20208;-75
2022/12/04 12:13:58;;;;;;;12.32;7.50;;;;;8.50;101574.00;;;;5008072;28;20678;-75
2022/12/04 12:16:34;;;;;;;17.00;9.30;;;;;8.50;101568.00;;;;5008804;28;20697;-75
2022/12/04 12:19:18;;;;;;;13.45;8.00;;;;;8.50;101574.00;;;;5006666;28;20204;-75
2022/12/04 12:21:53;;;;;;;13.13;7.93;;;;;8.60;101564.00;;;;5007952;28;20245;-74
2022/12/04 12:24:31;;;;;;;13.38;7.65;;;;;8.60;101576.00;;;;5014512;28;20206;-75
2022/12/04 12:27:11;;;;;;;13.38;8.65;;;;;8.50;101568.00;;;;5010208;28;20213;-75
2022/12/04 12:29:50;;;;;;;14.40;8.85;;;;;8.60;101569.00;;;;5017438;28;20307;-74